Gentryville, Indiana
Current Conditions -  °F | °C
As of 6:35 AM on Thursday 29 Jan 2015 (Local Time) from KHNB Reporting Station
Clear Clear  
Wind Chill: 42°   Ceiling: Unl
Heat Index: 48°   Visibility: 10mi
Dew Point: 34°   Wind: 17mph
Humidity: 57%   Direction: 200°SSW
Pressure: 29.87"   Gusts: 26mph
Location:  38.1°N, 87.03°W
Report Text: KHNB 291235Z AUTO 20015G23KT 10SM CLR 09/01 A2987 RMK AO1
Loading
Personal Weather Stations






























Interactive Weather Map New forecast layout! Learn more

10-Day Weather Forecast

Advertisements
Track Severe Weather on mobile